createdAt,value
2022-11-25T00:01:15.304Z,100395.60
2022-11-25T00:03:47.078Z,100397.92
2022-11-25T00:06:19.596Z,100398.66
2022-11-25T00:08:52.186Z,100400.10
2022-11-25T00:11:23.160Z,100399.10
2022-11-25T00:13:54.429Z,100397.30
2022-11-25T00:16:27.526Z,100395.83
2022-11-25T00:18:59.513Z,100396.97
2022-11-25T00:21:33.162Z,100392.51
2022-11-25T00:24:05.624Z,100394.36
2022-11-25T00:26:37.587Z,100399.20
2022-11-25T00:29:11.654Z,100397.27
2022-11-25T00:31:42.996Z,100400.47
2022-11-25T00:34:16.386Z,100398.89
2022-11-25T00:36:47.071Z,100397.00
2022-11-25T00:39:19.966Z,100398.45
2022-11-25T00:42:08.117Z,100399.68
2022-11-25T00:44:40.657Z,100391.68
2022-11-25T00:47:14.643Z,100400.40
2022-11-25T00:49:48.027Z,100403.42
2022-11-25T00:52:22.955Z,100401.14
2022-11-25T00:54:54.980Z,100403.15
2022-11-25T00:57:26.480Z,100400.66
2022-11-25T00:59:57.115Z,100401.67
2022-11-25T01:02:28.858Z,100401.63
2022-11-25T01:04:59.586Z,100400.95
2022-11-25T01:07:30.423Z,100399.20
2022-11-25T01:10:01.073Z,100400.34
2022-11-25T01:12:31.838Z,100402.02
2022-11-25T01:15:02.577Z,100401.94
2022-11-25T01:17:33.385Z,100400.32
2022-11-25T01:20:04.652Z,100400.91
2022-11-25T01:22:35.322Z,100399.27
2022-11-25T01:25:07.930Z,100399.79
2022-11-25T01:27:42.950Z,100402.09
2022-11-25T01:30:14.862Z,100402.73
2022-11-25T01:32:45.591Z,100403.73
2022-11-25T01:35:16.362Z,100400.89
2022-11-25T01:37:47.094Z,100396.86
2022-11-25T01:40:18.004Z,100402.64
2022-11-25T01:42:49.861Z,100403.02
2022-11-25T01:45:40.382Z,100401.59
2022-11-25T01:48:19.477Z,100401.16
2022-11-25T01:50:51.489Z,100400.28
2022-11-25T01:53:23.170Z,100400.82
2022-11-25T01:55:59.789Z,100397.89
2022-11-25T01:58:33.455Z,100392.57
2022-11-25T02:01:04.789Z,100398.33
2022-11-25T02:03:40.442Z,100399.54
2022-11-25T02:06:14.830Z,100396.55
2022-11-25T02:08:49.328Z,100400.97
2022-11-25T02:11:24.214Z,100401.27
2022-11-25T02:13:55.630Z,100399.80
2022-11-25T02:16:26.485Z,100398.97
2022-11-25T02:18:57.414Z,100393.65
2022-11-25T02:21:32.757Z,100395.67
2022-11-25T02:24:08.713Z,100397.65
2022-11-25T02:26:39.481Z,100399.08
2022-11-25T02:29:12.097Z,100398.30
2022-11-25T02:31:42.723Z,100399.63
2022-11-25T02:34:13.509Z,100400.88
2022-11-25T02:36:44.298Z,100395.60
2022-11-25T02:39:15.504Z,100390.95
2022-11-25T02:41:51.011Z,100394.80
2022-11-25T02:44:22.285Z,100389.75
2022-11-25T02:46:53.069Z,100385.81
2022-11-25T02:49:23.812Z,100388.20
2022-11-25T02:51:55.338Z,100383.08
2022-11-25T02:54:26.001Z,100394.68
2022-11-25T02:56:56.801Z,100394.30
2022-11-25T02:59:27.562Z,100397.78
2022-11-25T03:01:58.183Z,100395.23
2022-11-25T03:04:29.914Z,100391.05
2022-11-25T03:07:00.583Z,100394.31
2022-11-25T03:09:31.962Z,100395.55
2022-11-25T03:12:20.733Z,100398.79
2022-11-25T03:14:51.888Z,100392.27
2022-11-25T03:17:22.912Z,100399.09
2022-11-25T03:19:53.576Z,100400.30
2022-11-25T03:22:24.683Z,100398.79
2022-11-25T03:24:55.411Z,100400.40
2022-11-25T03:27:29.119Z,100404.06
2022-11-25T03:30:01.351Z,100402.14
2022-11-25T03:32:32.090Z,100400.48
2022-11-25T03:35:03.117Z,100399.98
2022-11-25T03:37:33.990Z,100401.09
2022-11-25T03:40:05.389Z,100410.34
2022-11-25T03:42:36.522Z,100409.83
2022-11-25T03:45:10.117Z,100411.84
2022-11-25T03:47:41.215Z,100415.06
2022-11-25T03:50:14.972Z,100416.88
2022-11-25T03:52:46.778Z,100416.48
2022-11-25T03:55:17.728Z,100414.54
2022-11-25T03:57:49.894Z,100416.86
2022-11-25T04:00:21.460Z,100415.34
2022-11-25T04:02:57.703Z,100419.91
2022-11-25T04:05:28.289Z,100420.92
2022-11-25T04:08:00.608Z,100419.02
2022-11-25T04:10:31.495Z,100420.09
2022-11-25T04:13:02.511Z,100420.24
2022-11-25T04:15:38.790Z,100422.72
2022-11-25T04:18:09.670Z,100420.71
2022-11-25T04:20:40.386Z,100421.77
2022-11-25T04:23:13.218Z,100423.61
2022-11-25T04:25:50.211Z,100418.89
2022-11-25T04:28:28.265Z,100421.98
2022-11-25T04:30:59.069Z,100423.83
2022-11-25T04:33:29.893Z,100428.84
2022-11-25T04:36:00.749Z,100429.19
2022-11-25T04:38:31.458Z,100432.33
2022-11-25T04:41:02.576Z,100431.36
2022-11-25T04:43:33.923Z,100434.70
2022-11-25T04:46:16.176Z,100434.96
2022-11-25T04:48:52.810Z,100433.05
2022-11-25T04:51:23.737Z,100431.14
2022-11-25T04:53:57.115Z,100432.46
2022-11-25T04:56:28.196Z,100431.60
2022-11-25T04:59:16.713Z,100432.71
2022-11-25T05:01:51.028Z,100434.33
2022-11-25T05:04:27.321Z,100436.98
2022-11-25T05:06:58.902Z,100437.94
2022-11-25T05:09:29.907Z,100433.41
2022-11-25T05:12:12.915Z,100436.35
2022-11-25T05:14:43.897Z,100433.85
2022-11-25T05:17:16.675Z,100429.79
2022-11-25T05:19:46.172Z,100428.31
2022-11-25T05:22:19.346Z,100430.02
2022-11-25T05:24:50.166Z,100426.19
2022-11-25T05:27:22.246Z,100422.77
2022-11-25T05:29:56.185Z,100420.05
2022-11-25T05:32:27.796Z,100420.92
2022-11-25T05:34:59.907Z,100420.52
2022-11-25T05:37:30.559Z,100421.78
2022-11-25T05:40:09.645Z,100416.95
2022-11-25T05:42:51.008Z,100423.77
2022-11-25T05:45:21.847Z,100423.65
2022-11-25T05:47:53.022Z,100428.27
2022-11-25T05:50:26.357Z,100421.73
2022-11-25T05:53:21.881Z,100433.02
2022-11-25T05:55:59.333Z,100434.17
2022-11-25T05:58:54.976Z,100435.54
2022-11-25T06:01:25.798Z,100437.34
2022-11-25T06:03:56.556Z,100439.14
2022-11-25T06:06:27.299Z,100435.04
2022-11-25T06:08:58.029Z,100438.71
2022-11-25T06:11:28.817Z,100438.93
2022-11-25T06:14:00.348Z,100438.46
2022-11-25T06:16:32.008Z,100443.06
2022-11-25T06:19:20.065Z,100446.09
2022-11-25T06:21:50.886Z,100448.96
2022-11-25T06:24:22.275Z,100450.33
2022-11-25T06:26:56.236Z,100452.94
2022-11-25T06:29:27.087Z,100453.26
2022-11-25T06:31:58.687Z,100454.19
2022-11-25T06:34:45.854Z,100466.88
2022-11-25T06:37:30.066Z,100478.22
2022-11-25T06:40:00.858Z,100475.09
2022-11-25T06:42:31.526Z,100476.44
2022-11-25T06:45:02.217Z,100479.48
2022-11-25T06:47:33.054Z,100478.94
2022-11-25T06:50:03.695Z,100484.64
2022-11-25T06:52:34.686Z,100489.05
2022-11-25T06:55:06.204Z,100485.79
2022-11-25T06:57:36.976Z,100488.27
2022-11-25T07:00:09.896Z,100485.23
2022-11-25T07:02:45.279Z,100482.02
2022-11-25T07:05:19.215Z,100481.77
2022-11-25T07:07:50.013Z,100494.28
2022-11-25T07:10:21.048Z,100491.98
2022-11-25T07:12:51.694Z,100500.38
2022-11-25T07:15:22.451Z,100505.88
2022-11-25T07:17:53.145Z,100507.21
2022-11-25T07:20:25.351Z,100509.21
2022-11-25T07:22:56.323Z,100513.52
2022-11-25T07:25:30.670Z,100512.86
2022-11-25T07:28:01.865Z,100515.10
2022-11-25T07:33:23.247Z,100524.38
2022-11-25T07:35:54.026Z,100519.20
2022-11-25T07:38:24.866Z,100519.31
2022-11-25T07:40:55.751Z,100518.16
2022-11-25T07:43:26.378Z,100521.79
2022-11-25T07:45:57.157Z,100520.92
2022-11-25T07:48:27.881Z,100518.83
2022-11-25T07:50:58.799Z,100512.12
2022-11-25T07:53:29.558Z,100519.84
2022-11-25T07:56:03.701Z,100518.39
2022-11-25T07:58:34.439Z,100520.09
2022-11-25T08:01:07.339Z,100515.48
2022-11-25T08:03:40.415Z,100514.45
2022-11-25T08:06:13.744Z,100519.29
2022-11-25T08:08:45.070Z,100515.80
2022-11-25T08:11:17.953Z,100526.21
2022-11-25T08:13:49.429Z,100528.45
2022-11-25T08:16:22.598Z,100524.36
2022-11-25T08:18:54.559Z,100524.86
2022-11-25T08:21:25.700Z,100523.64
2022-11-25T08:23:57.841Z,100522.56
2022-11-25T08:26:31.237Z,100520.30
2022-11-25T08:29:03.275Z,100524.08
2022-11-25T08:31:36.473Z,100526.13
2022-11-25T08:34:08.341Z,100522.54
2022-11-25T08:36:42.491Z,100523.66
2022-11-25T08:42:05.735Z,100526.49
2022-11-25T08:44:37.037Z,100527.40
2022-11-25T08:47:07.711Z,100526.70
2022-11-25T08:49:41.297Z,100526.39
2022-11-25T08:52:13.242Z,100525.30
2022-11-25T08:54:43.900Z,100529.65
2022-11-25T08:57:14.955Z,100533.58
2022-11-25T08:59:45.761Z,100530.93
2022-11-25T09:02:18.928Z,100533.09
2022-11-25T09:04:49.630Z,100531.05
2022-11-25T09:07:20.335Z,100531.97
2022-11-25T09:09:51.059Z,100534.10
2022-11-25T09:12:21.980Z,100532.05
2022-11-25T09:14:52.720Z,100532.19
2022-11-25T09:17:23.761Z,100533.77
2022-11-25T09:19:55.457Z,100529.60
2022-11-25T09:22:26.066Z,100529.30
2022-11-25T09:24:56.648Z,100525.46
2022-11-25T09:27:27.331Z,100524.17
2022-11-25T09:29:57.972Z,100527.05
2022-11-25T09:32:28.702Z,100525.47
2022-11-25T09:34:59.437Z,100522.89
2022-11-25T09:37:30.070Z,100524.21
2022-11-25T09:40:00.698Z,100526.92
2022-11-25T09:43:02.528Z,100527.82
2022-11-25T09:46:04.259Z,100525.94
2022-11-25T09:48:48.285Z,100521.05
2022-11-25T09:51:23.162Z,100516.95
2022-11-25T09:53:57.945Z,100525.11
2022-11-25T09:56:42.681Z,100528.60
2022-11-25T09:59:19.565Z,100528.15
2022-11-25T10:01:55.522Z,100523.08
2022-11-25T10:04:32.553Z,100523.54
2022-11-25T10:07:05.807Z,100525.98
2022-11-25T10:09:38.216Z,100523.82
2022-11-25T10:12:12.265Z,100519.75
2022-11-25T10:14:49.134Z,100520.77
2022-11-25T10:17:29.311Z,100519.23
2022-11-25T10:20:04.715Z,100515.30
2022-11-25T10:22:39.014Z,100520.39
2022-11-25T10:25:17.314Z,100519.80
2022-11-25T10:27:54.549Z,100520.84
2022-11-25T10:30:27.276Z,100522.42
2022-11-25T10:33:06.701Z,100519.09
2022-11-25T10:35:41.040Z,100517.84
2022-11-25T10:38:23.005Z,100510.27
2022-11-25T10:40:55.898Z,100508.14
2022-11-25T10:43:31.686Z,100510.23
2022-11-25T10:46:11.912Z,100508.05
2022-11-25T10:48:55.641Z,100510.69
2022-11-25T10:51:38.174Z,100509.10
2022-11-25T10:54:25.576Z,100505.37
2022-11-25T10:57:00.231Z,100504.80
2022-11-25T10:59:30.630Z,100506.02
2022-11-25T11:02:22.399Z,100503.16
2022-11-25T11:04:58.320Z,100504.23
2022-11-25T11:07:30.973Z,100502.48
2022-11-25T11:10:14.772Z,100498.66
2022-11-25T11:12:56.599Z,100503.80
2022-11-25T11:15:29.310Z,100497.81
2022-11-25T11:17:59.109Z,100497.55
2022-11-25T11:20:32.377Z,100494.88
2022-11-25T11:23:11.206Z,100487.96
2022-11-25T11:25:43.030Z,100489.31
2022-11-25T11:28:34.777Z,100483.82
2022-11-25T11:31:09.943Z,100482.40
2022-11-25T11:33:51.440Z,100478.30
2022-11-25T11:36:35.868Z,100475.23
2022-11-25T11:39:26.220Z,100473.73
2022-11-25T11:42:04.947Z,100475.67
2022-11-25T11:44:39.578Z,100475.56
2022-11-25T11:47:24.279Z,100473.34
2022-11-25T11:50:14.168Z,100475.73
2022-11-25T11:52:56.100Z,100473.10
2022-11-25T11:55:44.853Z,100479.65
2022-11-25T11:58:28.574Z,100475.15
2022-11-25T12:01:09.336Z,100470.59
2022-11-25T12:03:47.973Z,100471.38
2022-11-25T12:06:21.478Z,100469.30
2022-11-25T12:08:59.131Z,100473.19
2022-11-25T12:11:33.918Z,100467.98
2022-11-25T12:14:11.249Z,100469.94
2022-11-25T12:16:48.512Z,100462.32
2022-11-25T12:19:28.243Z,100467.20
2022-11-25T12:22:04.871Z,100465.63
2022-11-25T12:24:43.751Z,100467.33
2022-11-25T12:27:18.880Z,100464.36
2022-11-25T12:29:54.242Z,100461.00
2022-11-25T12:32:52.749Z,100456.58
2022-11-25T12:35:37.917Z,100454.91
2022-11-25T12:38:22.193Z,100452.09
2022-11-25T12:41:03.364Z,100448.77
2022-11-25T12:43:44.043Z,100453.79
2022-11-25T12:46:22.586Z,100453.44
2022-11-25T12:48:56.002Z,100455.76
2022-11-25T12:51:45.103Z,100458.23
2022-11-25T12:54:32.356Z,100459.41
2022-11-25T12:57:24.182Z,100456.42
2022-11-25T13:00:39.764Z,100457.09
2022-11-25T13:03:26.830Z,100455.77
2022-11-25T13:06:07.632Z,100460.16
2022-11-25T13:08:55.475Z,100463.40
2022-11-25T13:11:49.185Z,100465.36
2022-11-25T13:14:28.933Z,100469.98
2022-11-25T13:17:01.509Z,100468.15
2022-11-25T13:19:36.979Z,100473.67
2022-11-25T13:22:27.210Z,100473.57
2022-11-25T13:24:59.957Z,100478.84
2022-11-25T13:27:33.043Z,100479.61
2022-11-25T13:30:05.112Z,100484.34
2022-11-25T13:32:46.102Z,100488.35
2022-11-25T13:35:52.637Z,100488.20
2022-11-25T13:39:05.052Z,100484.52
2022-11-25T13:41:48.603Z,100488.39
2022-11-25T13:44:28.131Z,100490.15
2022-11-25T13:47:01.821Z,100490.17
2022-11-25T13:49:37.088Z,100493.56
2022-11-25T13:52:29.102Z,100494.45
2022-11-25T13:55:01.572Z,100496.16
2022-11-25T13:57:35.501Z,100498.48
2022-11-25T14:00:10.498Z,100499.96
2022-11-25T14:02:49.692Z,100502.21
2022-11-25T14:05:52.029Z,100503.80
2022-11-25T14:08:32.878Z,100502.30
2022-11-25T14:11:29.452Z,100502.98
2022-11-25T14:14:05.244Z,100507.95
2022-11-25T14:16:56.818Z,100510.05
2022-11-25T14:19:54.724Z,100511.95
2022-11-25T14:23:02.818Z,100516.18
2022-11-25T14:25:45.122Z,100508.44
2022-11-25T14:28:27.947Z,100517.80
2022-11-25T14:31:01.713Z,100523.14
2022-11-25T14:33:37.701Z,100522.31
2022-11-25T14:36:14.467Z,100530.16
2022-11-25T14:38:50.448Z,100533.86
2022-11-25T14:41:25.650Z,100544.86
2022-11-25T14:44:02.884Z,100552.25
2022-11-25T14:46:33.879Z,100555.90
2022-11-25T14:49:14.475Z,100556.25
2022-11-25T14:51:55.866Z,100563.79
2022-11-25T14:54:26.920Z,100563.28
2022-11-25T14:56:57.717Z,100567.36
2022-11-25T14:59:29.630Z,100573.48
2022-11-25T15:02:00.346Z,100575.45
2022-11-25T15:04:34.619Z,100579.93
2022-11-25T15:07:20.548Z,100575.78
2022-11-25T15:09:52.016Z,100576.13
2022-11-25T15:12:25.320Z,100577.92
2022-11-25T15:14:58.037Z,100573.96
2022-11-25T15:17:29.327Z,100575.61
2022-11-25T15:20:02.578Z,100576.77
2022-11-25T15:22:33.372Z,100578.34
2022-11-25T15:25:15.228Z,100579.75
2022-11-25T15:27:50.749Z,100580.30
2022-11-25T15:30:23.878Z,100584.92
2022-11-25T15:32:55.313Z,100585.52
2022-11-25T15:35:28.613Z,100591.59
2022-11-25T15:37:59.273Z,100600.71
2022-11-25T15:40:44.075Z,100612.67
2022-11-25T15:43:26.529Z,100617.33
2022-11-25T15:46:01.615Z,100621.14
2022-11-25T15:48:38.337Z,100619.06
2022-11-25T15:51:22.323Z,100615.92
2022-11-25T15:53:57.638Z,100622.88
2022-11-25T15:56:29.629Z,100621.61
2022-11-25T15:59:01.936Z,100617.45
2022-11-25T16:01:33.083Z,100621.59
2022-11-25T16:04:20.522Z,100622.42
2022-11-25T16:06:59.544Z,100621.54
2022-11-25T16:09:31.458Z,100623.64
2022-11-25T16:12:18.367Z,100625.36
2022-11-25T16:14:48.990Z,100632.06
2022-11-25T16:17:20.066Z,100636.61
2022-11-25T16:19:51.358Z,100639.34
2022-11-25T16:22:22.971Z,100644.73
2022-11-25T16:25:01.737Z,100650.02
2022-11-25T16:27:38.261Z,100650.45
2022-11-25T16:30:20.643Z,100649.70
2022-11-25T16:32:51.334Z,100655.78
2022-11-25T16:35:23.290Z,100654.05
2022-11-25T16:37:56.747Z,100656.00
2022-11-25T16:40:29.659Z,100658.91
2022-11-25T16:42:58.769Z,100664.13
2022-11-25T16:45:30.740Z,100665.14
2022-11-25T16:48:01.578Z,100659.02
2022-11-25T16:50:32.484Z,100661.41
2022-11-25T16:53:03.603Z,100660.49
2022-11-25T16:55:34.874Z,100656.61
2022-11-25T16:58:10.556Z,100655.58
2022-11-25T17:00:41.269Z,100654.79
2022-11-25T17:03:14.416Z,100657.70
2022-11-25T17:05:46.961Z,100657.16
2022-11-25T17:08:17.634Z,100653.79
2022-11-25T17:10:49.858Z,100654.64
2022-11-25T17:13:24.417Z,100653.96
2022-11-25T17:16:02.573Z,100659.52
2022-11-25T17:18:33.551Z,100657.02
2022-11-25T17:21:04.363Z,100659.48
2022-11-25T17:23:35.082Z,100662.63
2022-11-25T17:26:06.014Z,100669.60
2022-11-25T17:28:37.019Z,100669.29
2022-11-25T17:31:09.913Z,100676.30
2022-11-25T17:33:46.105Z,100681.72
2022-11-25T17:36:16.705Z,100688.63
2022-11-25T17:38:47.920Z,100687.08
2022-11-25T17:41:22.352Z,100691.08
2022-11-25T17:43:54.599Z,100691.93
2022-11-25T17:46:29.497Z,100696.38
2022-11-25T17:49:00.557Z,100698.35
2022-11-25T17:51:31.220Z,100691.24
2022-11-25T17:54:01.825Z,100696.45
2022-11-25T17:56:33.304Z,100698.17
2022-11-25T17:59:07.296Z,100697.90
2022-11-25T18:01:37.954Z,100699.42
2022-11-25T18:04:18.192Z,100698.01
2022-11-25T18:06:48.874Z,100704.85
2022-11-25T18:09:20.181Z,100703.00
2022-11-25T18:11:52.994Z,100707.11
2022-11-25T18:14:27.552Z,100706.13
2022-11-25T18:16:59.754Z,100710.62
2022-11-25T18:19:30.658Z,100715.41
2022-11-25T18:22:10.259Z,100718.67
2022-11-25T18:24:41.428Z,100723.08
2022-11-25T18:27:19.516Z,100725.17
2022-11-25T18:29:50.726Z,100729.45
2022-11-25T18:32:22.625Z,100728.64
2022-11-25T18:34:53.909Z,100728.81
2022-11-25T18:37:25.053Z,100729.52
2022-11-25T18:39:55.623Z,100733.49
2022-11-25T18:42:28.485Z,100733.70
2022-11-25T18:44:57.891Z,100737.80
2022-11-25T18:47:28.643Z,100745.00
2022-11-25T18:49:59.320Z,100744.21
2022-11-25T18:52:30.037Z,100747.60
2022-11-25T18:55:00.661Z,100752.59
2022-11-25T18:57:31.610Z,100753.24
2022-11-25T19:02:54.055Z,100767.58
2022-11-25T19:05:26.426Z,100766.69
2022-11-25T19:07:58.283Z,100768.08
2022-11-25T19:10:33.237Z,100769.88
2022-11-25T19:13:07.193Z,100773.44
2022-11-25T19:15:37.899Z,100775.95
2022-11-25T19:18:13.795Z,100775.66
2022-11-25T19:20:44.407Z,100775.98
2022-11-25T19:23:25.372Z,100774.80
2022-11-25T19:25:59.758Z,100776.35
2022-11-25T19:28:31.684Z,100776.77
2022-11-25T19:31:04.616Z,100781.20
2022-11-25T19:33:37.668Z,100785.31
2022-11-25T19:36:07.450Z,100791.83
2022-11-25T19:38:38.012Z,100795.94
2022-11-25T19:41:09.311Z,100795.65
2022-11-25T19:43:39.956Z,100801.06
2022-11-25T19:46:29.615Z,100806.81
2022-11-25T19:49:05.985Z,100809.92
2022-11-25T19:51:37.066Z,100813.38
2022-11-25T19:54:10.527Z,100817.17
2022-11-25T19:56:41.555Z,100819.26
2022-11-25T19:59:12.228Z,100820.08
2022-11-25T20:01:45.343Z,100822.38
2022-11-25T20:04:22.090Z,100832.21
2022-11-25T20:06:52.736Z,100831.34
2022-11-25T20:09:23.390Z,100833.46
2022-11-25T20:12:04.792Z,100827.44
2022-11-25T20:14:37.880Z,100834.21
2022-11-25T20:17:12.093Z,100839.77
2022-11-25T20:19:44.491Z,100839.01
2022-11-25T20:22:19.494Z,100846.15
2022-11-25T20:24:50.771Z,100847.41
2022-11-25T20:27:23.402Z,100853.89
2022-11-25T20:29:54.281Z,100858.48
2022-11-25T20:32:29.142Z,100863.64
2022-11-25T20:35:00.818Z,100864.05
2022-11-25T20:37:50.610Z,100867.80
2022-11-25T20:40:24.477Z,100870.54
2022-11-25T20:42:55.723Z,100871.21
2022-11-25T20:45:26.813Z,100876.83
2022-11-25T20:47:59.197Z,100877.09
2022-11-25T20:50:32.207Z,100885.75
2022-11-25T20:53:03.858Z,100885.75
2022-11-25T20:55:34.861Z,100888.77
2022-11-25T20:58:13.138Z,100891.30
2022-11-25T21:00:43.886Z,100891.92
2022-11-25T21:03:14.503Z,100894.36
2022-11-25T21:05:47.584Z,100896.76
2022-11-25T21:08:22.588Z,100899.49
2022-11-25T21:10:55.517Z,100903.19
2022-11-25T21:13:25.304Z,100907.86
2022-11-25T21:15:56.781Z,100908.39
2022-11-25T21:18:31.642Z,100914.06
2022-11-25T21:21:03.261Z,100913.46
2022-11-25T21:23:37.428Z,100915.27
2022-11-25T21:26:13.512Z,100920.19
2022-11-25T21:28:46.798Z,100924.45
2022-11-25T21:31:20.650Z,100929.25
2022-11-25T21:33:54.283Z,100929.34
2022-11-25T21:36:28.804Z,100932.47
2022-11-25T21:39:05.963Z,100933.77
2022-11-25T21:41:37.402Z,100938.39
2022-11-25T21:44:08.967Z,100943.54
2022-11-25T21:46:40.144Z,100946.52
2022-11-25T21:49:13.682Z,100947.05
2022-11-25T21:51:44.509Z,100951.31
2022-11-25T21:54:15.214Z,100952.25
2022-11-25T21:56:46.304Z,100951.36
2022-11-25T21:59:21.407Z,100954.60
2022-11-25T22:01:52.331Z,100959.33
2022-11-25T22:04:24.269Z,100959.24
2022-11-25T22:06:55.533Z,100964.52
2022-11-25T22:09:26.881Z,100966.89
2022-11-25T22:11:57.731Z,100964.27
2022-11-25T22:14:34.554Z,100965.48
2022-11-25T22:17:08.026Z,100965.70
2022-11-25T22:19:38.676Z,100962.91
2022-11-25T22:22:14.793Z,100964.39
2022-11-25T22:24:45.844Z,100968.58
2022-11-25T22:27:22.322Z,100965.42
2022-11-25T22:29:53.719Z,100969.63
2022-11-25T22:32:25.679Z,100972.69
2022-11-25T22:34:56.364Z,100972.98
2022-11-25T22:37:27.688Z,100973.63
2022-11-25T22:39:58.493Z,100976.83
2022-11-25T22:42:32.171Z,100974.74
2022-11-25T22:45:06.558Z,100977.00
2022-11-25T22:47:40.565Z,100984.62
2022-11-25T22:50:24.663Z,100988.00
2022-11-25T22:52:56.799Z,100993.50
2022-11-25T22:55:29.254Z,100992.63
2022-11-25T22:58:01.743Z,100997.27
2022-11-25T23:00:35.313Z,101000.63
2022-11-25T23:03:09.026Z,101004.42
2022-11-25T23:05:40.692Z,101006.59
2022-11-25T23:08:16.565Z,101006.11
2022-11-25T23:10:48.360Z,101004.17
2022-11-25T23:13:20.426Z,101008.30
2022-11-25T23:15:54.082Z,101007.38
2022-11-25T23:18:37.761Z,101007.41
2022-11-25T23:21:15.254Z,101012.55
2022-11-25T23:23:45.921Z,101013.42
2022-11-25T23:26:17.649Z,101012.98
2022-11-25T23:28:48.457Z,101018.93
2022-11-25T23:31:19.748Z,101019.11
2022-11-25T23:33:52.236Z,101014.05
2022-11-25T23:36:26.733Z,101018.27
2022-11-25T23:38:59.541Z,101017.83
2022-11-25T23:41:30.069Z,101020.48
2022-11-25T23:44:10.528Z,101018.94
2022-11-25T23:46:42.937Z,101028.23
2022-11-25T23:49:21.218Z,101027.70
2022-11-25T23:51:52.478Z,101030.20
2022-11-25T23:54:28.498Z,101031.87
2022-11-25T23:56:59.470Z,101031.86
2022-11-25T23:59:31.233Z,101030.96
